• Join FlightAware (Why Join?)
  • Login
  • US Flag 
05:49PM EST


 

Airport Tracker/Info


-or-


 

Live Flight TrackerFlight Track Log ✈ N762NC ✈ 23-Aug-2013 ✈ KDTW - KMCI

Flight Track Log - Related Links

Times and Time Zones

All times are in EDT time to prevent confusion due to time zone crossing. See the N762NC flight status page for this flight to view local times or setup timezone preferences in your user account.

Time Position Orientation Groundspeed Altitude Reporting Facility
EDT Latitude Longitude Course Direction KTS MPH feet Rate Location/Type
04:09PM 42.2308 -83.3511 275° West 174 200 1,300  Level Cleveland Center
04:10PM 42.2769 -83.3389 11° North 226 260 2,600 1,860 Climbing Cleveland Center
04:10PM 42.3361 -83.3164 16° North 245 282 4,600 2,280 Climbing Cleveland Center
04:12PM 42.4117 -83.2858 17° North 262 302 7,300 1,920 Climbing Cleveland Center
04:13PM 42.3909 -84.0640 292° West  Level FlightAware Approximate
04:13PM 42.4783 -83.3731 316° Northwest 294 338 9,600  Level Cleveland Center
04:14PM 42.4184 -84.2094 275° West  Level FlightAware Approximate
04:14PM 42.4467 -83.4758 247° West 291 335 10,000  Level Cleveland Center
04:15PM 42.4169 -83.5842 250° West 315 362 10,000 780 Level Cleveland Center
04:16PM 42.3989 -83.7128 259° West 336 387 11,600 1,800 Climbing Cleveland Center
04:17PM 42.4075 -83.8511 275° West 356 410 13,700 2,160 Climbing Cleveland Center
04:18PM 42.4286 -83.9872 282° West 363 418 16,000 2,160 Climbing Cleveland Center
04:20PM 42.4169 -84.2986 267° West 367 422 21,000 1,920 Climbing Chicago Center
04:21PM 42.4189 -84.4589 271° West 357 411 22,600 1,260 Climbing Chicago Center
04:22PM 42.4189 -84.5997 270° West 369 425 23,700 1,140 Climbing Chicago Center
04:24PM 42.4300 -84.7425 276° West 382 440 25,000 1,140 Climbing Chicago Center
04:25PM 42.4358 -84.8894 273° West 388 447 26,100 1,020 Climbing Chicago Center
04:26PM 42.4475 -85.0369 276° West 394 453 27,200 960 Climbing Chicago Center
04:27PM 42.4528 -85.1889 273° West 402 463 28,100 900 Climbing Chicago Center
04:28PM 42.4442 -85.3778 267° West 416 479 29,100 960 Climbing Chicago Center
04:29PM 42.4381 -85.5372 267° West 422 486 30,100 840 Climbing Chicago Center
04:30PM 42.4386 -85.6953 270° West 420 483 30,900 780 Climbing Chicago Center
04:31PM 42.4411 -85.8553 271° West 423 487 31,800 840 Climbing Chicago Center
04:32PM 42.4442 -86.0142 272° West 423 487 32,700 720 Climbing Chicago Center
04:33PM 42.4636 -86.1697 280° West 420 483 33,400 600 Climbing Chicago Center
04:34PM 42.4300 -86.3206 253° West 430 495 34,000 240 Climbing Chicago Center
04:35PM 42.3442 -86.4833 235° Southwest 444 511 34,000 -60 Level Chicago Center
04:36PM 42.2794 -86.6003 233° Southwest 451 519 33,900 -60 Descending Chicago Center
04:37PM 42.1972 -86.7536 234° Southwest 445 512 33,900  Level Chicago Center
04:38PM 42.1233 -86.8881 233° Southwest 448 516 33,900  Level Chicago Center
04:39PM 42.0494 -87.0244 234° Southwest 450 518 34,000  Climbing Chicago Center
04:40PM 41.9592 -87.1867 233° Southwest 452 520 33,900  Descending Chicago Center
04:41PM 41.8858 -87.3236 234° Southwest 452 520 34,000  Climbing Chicago Center
04:42PM 41.8108 -87.4575 233° Southwest 452 520 33,900  Descending Chicago Center
04:43PM 41.7439 -87.5961 237° Southwest 445 512 34,000  Climbing Chicago Center
04:44PM 41.6786 -87.7378 238° Southwest 449 517 33,900  Descending Chicago Center
04:45PM 41.6036 -87.9083 240° Southwest 447 514 34,000  Climbing Chicago Center
04:46PM 41.5522 -88.0544 245° Southwest 444 511 33,900 -60 Descending Chicago Center
04:47PM 41.5050 -88.2025 247° West 451 519 33,900  Level Chicago Center
04:48PM 41.4458 -88.3803 246° West 446 513 33,900  Level Chicago Center
04:49PM 41.3961 -88.5289 246° West 445 512 33,900  Level Chicago Center
04:50PM 41.3467 -88.6783 246° West 445 512 34,000  Climbing Chicago Center
04:51PM 41.2969 -88.8275 246° West 445 512 33,900  Descending Chicago Center
04:52PM 41.2500 -88.9794 248° West 447 514 34,000  Climbing Chicago Center
04:54PM 41.1950 -89.1589 248° West 443 510 33,900  Descending Chicago Center
04:55PM 41.1736 -89.3097 259° West 436 502 34,000  Climbing Chicago Center
04:56PM 41.1592 -89.4664 263° West 432 497 34,000 -60 Level Chicago Center
04:57PM 41.1461 -89.6231 264° West 432 497 33,900  Descending Chicago Center
04:58PM 41.1175 -89.7772 256° West 439 505 34,000  Climbing Chicago Center
04:59PM 41.0433 -89.9467 240° Southwest 450 518 33,900  Descending Chicago Center
05:00PM 40.9872 -90.1014 244° Southwest 447 514 34,000  Climbing Chicago Center
05:01PM 40.9347 -90.2475 245° Southwest 442 509 33,900 -60 Descending Chicago Center
05:02PM 40.8844 -90.3867 244° Southwest 446 513 33,900  Level Chicago Center
05:03PM 40.8208 -90.5625 244° Southwest 446 513 34,000  Climbing Chicago Center
05:04PM 40.7681 -90.7106 245° Southwest 449 517 33,900 -60 Descending Chicago Center
05:05PM 40.7161 -90.8592 245° Southwest 448 516 33,900  Level Chicago Center
05:06PM 40.6731 -91.0111 250° West 445 512 34,000  Climbing Chicago Center
05:07PM 40.6300 -91.1625 250° West 444 511 33,900  Descending Chicago Center
05:08PM 40.5953 -91.2892 250° West 441 507 34,000 -180 Climbing Kansas City Center
05:09PM 40.5644 -91.4389 255° West 433 498 33,600 -420 Descending Kansas City Center
05:10PM 40.5539 -91.5883 265° West 417 480 33,200 -300 Descending Kansas City Center
05:11PM 40.5383 -91.7358 262° West 413 475 33,000 -120 Descending Kansas City Center
05:12PM 40.5167 -91.9147 261° West 415 478 33,000 -240 Level Kansas City Center
05:13PM 40.5008 -92.0689 262° West 422 486 32,600 -420 Descending Kansas City Center
05:14PM 40.4867 -92.2253 263° West 432 497 32,200 -600 Descending Kansas City Center
05:15PM 40.4764 -92.3775 265° West 419 482 31,400 -600 Descending Kansas City Center
05:16PM 40.4650 -92.5286 264° West 416 479 31,000 -240 Descending Kansas City Center
05:17PM 40.4492 -92.7053 263° West 429 494 31,000 -120 Level Kansas City Center
05:18PM 40.4294 -92.8533 260° West 435 501 30,800 -960 Descending Kansas City Center
05:19PM 40.3331 -92.9781 225° Southwest 432 497 29,000 -2,400 Descending Kansas City Center
05:20PM 40.2433 -93.0881 223° Southwest 422 486 25,800 -3,000 Descending Kansas City Center
05:21PM 40.1575 -93.1889 222° Southwest 421 484 22,800 -2,460 Descending Kansas City Center
05:22PM 40.0753 -93.2886 223° Southwest 413 475 20,800 -2,100 Descending Kansas City Center
05:23PM 40.0047 -93.3814 225° Southwest 374 430 18,500 -2,340 Descending Kansas City Center
05:24PM 39.9175 -93.4917 224° Southwest 368 423 16,000 -2,220 Descending Kansas City Center
05:25PM 39.8486 -93.5803 225° Southwest 357 411 14,000 -1,620 Descending Kansas City Center
05:26PM 39.7836 -93.6653 225° Southwest 341 392 12,700 -1,020 Descending Kansas City Center
05:27PM 39.7061 -93.7606 223° Southwest 341 392 12,000 -360 Descending Kansas City Center
05:28PM 39.6408 -93.8433 224° Southwest 341 392 12,000 -420 Level Kansas City Center
05:29PM 39.5847 -93.9431 234° Southwest 307 353 11,200 -660 Descending Kansas City Center
05:31PM 39.5483 -94.0403 244° Southwest 311 358 10,700 -480 Descending Kansas City Center
05:32PM 39.5122 -94.1431 246° West 327 376 10,300 -540 Descending Kansas City Center
05:33PM 39.4892 -94.2633 256° West 301 346 9,600 -1,200 Descending Kansas City Center
05:34PM 39.4733 -94.3581 258° West 283 326 7,900 -1,740 Descending Kansas City Center
05:35PM 39.4592 -94.4697 261° West 282 325 6,100 -1,200 Descending Kansas City Center
05:36PM 39.4500 -94.5569 262° West 258 297 5,500 -1,260 Descending Kansas City Center
05:37PM 39.4403 -94.6439 262° West 222 255 3,600 -1,380 Descending Kansas City Center
05:38PM 39.3928 -94.6772 208° Southwest 199 229 2,700 -900 Descending Kansas City Center
05:39PM 39.3456 -94.6903 192° South 156 180 1,800 -840 Descending Kansas City Center
05:40PM 39.3089 -94.7011 193° South 144 166 1,100 -720 Descending Kansas City Center